• Join FlightAware (Why Join?)
  • Login
  • US Flag 
08:56AM EDT


 

Airport Tracker/Info


-or-


 

Live Flight TrackerFlight Track Log ✈ LXJ444 ✈ 10-May-2013 ✈ KBUF - KIAD

Flight Track Log - Related Links

Times and Time Zones

All times are in EDT time to prevent confusion due to time zone crossing. See the LXJ444 flight status page for this flight to view local times or setup timezone preferences in your user account.

Time Position Orientation Groundspeed Altitude Reporting Facility
EDT Latitude Longitude Course Direction KTS MPH feet Rate Location/Type
11:26AM 42.9333 -78.7167 144° Southeast 148 170 1,800  Level Buffalo TRACON
11:26AM 42.9000 -78.6833 144° Southeast 187 215 3,400 2,280 Climbing Buffalo TRACON
11:27AM 42.8594 -78.6856 182° South 233 268 5,400 2,760 Climbing Cleveland Center
11:28AM 42.7842 -78.6792 176° South 261 300 8,600 2,100 Climbing Cleveland Center
11:29AM 42.7028 -78.6733 177° South 311 358 9,600 1,500 Climbing Cleveland Center
11:30AM 42.6381 -78.6639 174° South 292 336 11,600 3,000 Climbing Cleveland Center
11:31AM 42.5483 -78.6583 177° South 302 348 15,600 4,020 Climbing Cleveland Center
11:32AM 42.4544 -78.6497 176° South 326 375 19,700 3,780 Climbing Cleveland Center
11:33AM 42.3542 -78.6306 172° South 352 405 23,200 2,460 Climbing Cleveland Center
11:34AM 42.2469 -78.5806 161° South 377 434 24,700 960 Climbing Cleveland Center
11:35AM 42.1375 -78.5306 161° South 404 465 25,200 900 Climbing Cleveland Center
11:36AM 42.0219 -78.4814 162° South 421 484 26,500 900 Climbing Cleveland Center
11:37AM 41.9064 -78.4292 161° South 435 501 27,000 240 Climbing Cleveland Center
11:38AM 41.7928 -78.3772 161° South 435 501 27,000  Level Cleveland Center
11:39AM 41.6772 -78.3283 162° South 435 501 27,000  Level Cleveland Center
11:40AM 41.5658 -78.2797 162° South 435 501 27,000  Level Cleveland Center
11:41AM 41.4500 -78.2256 161° South 430 495 27,000 -480 Level Cleveland Center
11:43AM 41.2553 -78.1403 162° South 415 478 25,800 -780 Descending New York Center
11:44AM 41.1292 -78.0878 163° South 420 483 25,000 -420 Descending New York Center
11:45AM 41.0194 -78.0403 162° South 426 490 25,000  Level New York Center
11:46AM 40.9103 -77.9875 160° South 426 490 25,000 -720 Level New York Center
11:48AM 40.7281 -77.7928 141° Southeast 420 483 22,900 -1,200 Descending New York Center
11:49AM 40.6417 -77.7019 141° Southeast 420 483 21,400 -1,560 Descending New York Center
11:50AM 40.5553 -77.6114 141° Southeast 409 471 19,900 -1,680 Descending New York Center
11:51AM 40.4633 -77.5422 150° Southeast 389 448 18,200 -1,500 Descending New York Center
11:52AM 40.3739 -77.5033 162° South 374 430 16,900 -1,500 Descending New York Center
11:53AM 40.2658 -77.4603 163° South 374 430 15,300 -1,560 Descending New York Center
11:54AM 40.1803 -77.4247 162° South 369 425 13,900 -720 Descending New York Center
11:56AM 39.9667 -77.3333 162° South 345 397 13,000 -300 Descending Potomac TRACON
11:57AM 39.8833 -77.3000 163° South 334 384 13,000 -300 Level Potomac TRACON
11:58AM 39.8000 -77.2833 171° South 335 386 12,500 -1,380 Descending Potomac TRACON
11:59AM 39.7167 -77.3167 197° South 327 376 10,400 -1,800 Descending Potomac TRACON
12:00PM 39.6333 -77.3333 189° South 284 327 8,900 -1,800 Descending Potomac TRACON
12:01PM 39.5667 -77.3500 191° South 274 315 6,800 -2,040 Descending Potomac TRACON
12:02PM 39.5000 -77.3667 191° South 262 302 4,900 -1,500 Descending Potomac TRACON
12:03PM 39.4333 -77.3833 191° South 256 295 4,000 -480 Descending Potomac TRACON
12:04PM 39.3500 -77.4000 189° South 257 296 4,000  Level Potomac TRACON
12:05PM 39.2833 -77.4333 201° Southwest 257 296 4,000 -480 Level Potomac TRACON
12:06PM 39.2167 -77.4333 180° South 251 289 3,100 -540 Descending Potomac TRACON
12:07PM 39.1500 -77.4333 180° South 249 287 3,000 -240 Descending Potomac TRACON
12:08PM 39.0833 -77.4333 180° South 226 260 2,700 -660 Descending Potomac TRACON
12:09PM 39.0167 -77.4333 180° South 197 227 1,700 -900 Descending Potomac TRACON
12:10PM 38.9833 -77.4333 180° South 139 160 900 -840 Descending Potomac TRACON
12:12PM 38.9474 -77.4599 90° East  Level Estimated
12:19PM 38.9474 -77.4599 90° East  Level Estimated
12:20PM 38.9474 -77.4599 90° East  Level Estimated
12:21PM 38.9474 -77.4599 90° East  Level Estimated
12:22PM 38.9474 -77.4599 90° East  Level Estimated
12:23PM 38.9474 -77.4599 90° East  Level Estimated
12:24PM 38.9474 -77.4599 90° East  Level Estimated